Observations

83.1 °F / 28.4 °C
ENE at 14 MPH
74%
74.3°F / 23.5 °C
29.9" (1012 mb)
10 mile(s)
partly cloudy
2021.04.20 2220 UTC

Observations

Surface


Raw METARs

2021/04/20 22:20
PKWA 202220Z AUTO 07012KT 10SM SCT020 28/24 A2990 RMK AO2 T02840235

Translated METAR

Kwajalein, Bucholz AAF, Kwajalein KMR ATOL Airport, Marshall Islands (PKWA) 08-43N 167-44E 2M
Apr 20, 2021 - 06:20 PM EDT / 2021.04.20 2220 UTC
Wind: from the ENE (070 degrees) at 14 MPH (12 KT):0
Visibility: 10 mile(s):0
Sky conditions: partly cloudy
Temperature: 83.1 F (28.4 C)
Dew Point: 74.3 F (23.5 C)
Relative Humidity: 74%
Pressure (altimeter): 29.9 in. Hg (1012 hPa)
ob: PKWA 202220Z AUTO 07012KT 10SM SCT020 28/24 A2990 RMK AO2 T02840235
cycle: 22



Upper Air


Latest Skew-T

Skew T Diagram

Latest Data File